If you wish to contribute or participate in the discussions about articles you are invited to join SKYbrary as a registered user

 Actions

Belo Horizonte/Pampulha Carlos Drummond de Andrade Airport

From SKYbrary Wiki

SBBH
Airport
ICAO: SBBH – IATA: PLU
Summary
Name Belo Horizonte/Pampulha Carlos Drummond de Andrade Airport
Region South America and Caribbean
Territory Brazil BR.gif
Location Pampulha, Minas Gerais
Serving Belo Horizonte
Elevation 789.127 m
2,589 ft789.127 m
Coordinates 19° 51' 6.98" S, 43° 57' 2.02" W
Runways
Designator Length Width Surface ROPS
13/31 2540 m8,333.333 ft
45 m147.638 ft
ASP yes/yes


METAR
Observation SBBH 230800Z 07006KT 9999 FEW018 SCT055 BKN100 18/14 Q1018
Station Belo Horizonte Aeroporto
Date/Time 23 March 2019 08:00:00
Wind direction 70°
Wind speed 06 kts
Lowest cloud amount few clouds
Temperature 18°C
Dew point 14°C
Humidity 77%
QNH 1018 hPa
Weather condition n/a

Belo Horizonte/Pampulha–Carlos Drummond de Andrade Airport is an airport serving Belo Horizonte, Brazil, located in the neighborhood of Pampulha. Since December 16, 2004 the airport is also named after the Minas Gerais-born poet Carlos Drummond de Andrade.

Climatology

Humid subtropical climate (Köppen climate classification Cwa)

Maps

Terrain

Loading map...

Airport Layout

Loading map...


Accidents & Serious Incidents at or in vicinity of SBBH

None on SKYbrary